sensor_id;sensor_type;location;lat;lon;timestamp;P1;durP1;ratioP1;P2;durP2;ratioP2
31596;SDS011;18201;50.978;7.034;2023-05-14T00:00:27;17.52;;;13.80;;
31596;SDS011;18201;50.978;7.034;2023-05-14T00:00:59;16.67;;;15.00;;
31596;SDS011;18201;50.978;7.034;2023-05-14T00:01:30;16.52;;;14.75;;
31596;SDS011;18201;50.978;7.034;2023-05-14T00:02:01;19.83;;;14.57;;
31596;SDS011;18201;50.978;7.034;2023-05-14T00:02:33;17.85;;;15.50;;
31596;SDS011;18201;50.978;7.034;2023-05-14T00:03:04;22.15;;;15.30;;
31596;SDS011;18201;50.978;7.034;2023-05-14T00:03:35;26.65;;;14.63;;
31596;SDS011;18201;50.978;7.034;2023-05-14T00:04:08;18.83;;;14.65;;
31596;SDS011;18201;50.978;7.034;2023-05-14T00:04:39;15.93;;;14.23;;
31596;SDS011;18201;50.978;7.034;2023-05-14T00:05:10;15.52;;;13.93;;
31596;SDS011;18201;50.978;7.034;2023-05-14T00:05:41;18.20;;;14.48;;
31596;SDS011;18201;50.978;7.034;2023-05-14T00:06:13;17.13;;;14.70;;
31596;SDS011;18201;50.978;7.034;2023-05-14T00:06:44;16.27;;;14.57;;
31596;SDS011;18201;50.978;7.034;2023-05-14T00:07:15;20.58;;;15.38;;
31596;SDS011;18201;50.978;7.034;2023-05-14T00:07:47;18.52;;;14.77;;
31596;SDS011;18201;50.978;7.034;2023-05-14T00:08:19;16.98;;;14.90;;
31596;SDS011;18201;50.978;7.034;2023-05-14T00:08:50;15.90;;;14.18;;
31596;SDS011;18201;50.978;7.034;2023-05-14T00:09:22;16.88;;;15.10;;
31596;SDS011;18201;50.978;7.034;2023-05-14T00:09:53;16.08;;;14.55;;
31596;SDS011;18201;50.978;7.034;2023-05-14T00:10:24;17.10;;;15.30;;
31596;SDS011;18201;50.978;7.034;2023-05-14T00:10:56;16.45;;;14.75;;
31596;SDS011;18201;50.978;7.034;2023-05-14T00:11:28;17.27;;;13.93;;
31596;SDS011;18201;50.978;7.034;2023-05-14T00:11:59;16.63;;;14.38;;
31596;SDS011;18201;50.978;7.034;2023-05-14T00:12:29;18.63;;;13.75;;
31596;SDS011;18201;50.978;7.034;2023-05-14T00:13:00;16.55;;;14.95;;
31596;SDS011;18201;50.978;7.034;2023-05-14T00:13:32;17.02;;;14.27;;
31596;SDS011;18201;50.978;7.034;2023-05-14T00:14:03;16.60;;;14.93;;
31596;SDS011;18201;50.978;7.034;2023-05-14T00:14:34;16.95;;;14.90;;
31596;SDS011;18201;50.978;7.034;2023-05-14T00:15:06;17.48;;;14.60;;
31596;SDS011;18201;50.978;7.034;2023-05-14T00:15:38;17.02;;;14.60;;
31596;SDS011;18201;50.978;7.034;2023-05-14T00:16:10;16.55;;;14.80;;
31596;SDS011;18201;50.978;7.034;2023-05-14T00:16:41;19.95;;;14.70;;
31596;SDS011;18201;50.978;7.034;2023-05-14T00:17:12;16.95;;;14.68;;
31596;SDS011;18201;50.978;7.034;2023-05-14T00:17:43;17.00;;;15.20;;
31596;SDS011;18201;50.978;7.034;2023-05-14T00:18:15;18.00;;;15.55;;
31596;SDS011;18201;50.978;7.034;2023-05-14T00:18:47;18.40;;;15.10;;
31596;SDS011;18201;50.978;7.034;2023-05-14T00:19:18;19.55;;;14.73;;
31596;SDS011;18201;50.978;7.034;2023-05-14T00:19:49;18.75;;;15.60;;
31596;SDS011;18201;50.978;7.034;2023-05-14T00:20:20;16.80;;;14.93;;
31596;SDS011;18201;50.978;7.034;2023-05-14T00:20:51;16.73;;;14.52;;
31596;SDS011;18201;50.978;7.034;2023-05-14T00:21:23;16.17;;;14.30;;
31596;SDS011;18201;50.978;7.034;2023-05-14T00:21:55;16.52;;;14.82;;
31596;SDS011;18201;50.978;7.034;2023-05-14T00:22:26;15.30;;;13.38;;
31596;SDS011;18201;50.978;7.034;2023-05-14T00:22:57;18.17;;;14.82;;
31596;SDS011;18201;50.978;7.034;2023-05-14T00:23:29;16.83;;;15.02;;
31596;SDS011;18201;50.978;7.034;2023-05-14T00:24:01;18.58;;;15.27;;
31596;SDS011;18201;50.978;7.034;2023-05-14T00:24:32;16.50;;;14.77;;
31596;SDS011;18201;50.978;7.034;2023-05-14T00:25:04;18.08;;;15.93;;
31596;SDS011;18201;50.978;7.034;2023-05-14T00:25:36;24.02;;;16.55;;
31596;SDS011;18201;50.978;7.034;2023-05-14T00:26:07;22.00;;;15.43;;
31596;SDS011;18201;50.978;7.034;2023-05-14T00:26:38;18.55;;;15.88;;
31596;SDS011;18201;50.978;7.034;2023-05-14T00:27:10;17.08;;;15.38;;
31596;SDS011;18201;50.978;7.034;2023-05-14T00:27:41;19.02;;;16.13;;
31596;SDS011;18201;50.978;7.034;2023-05-14T00:28:12;20.52;;;15.45;;
31596;SDS011;18201;50.978;7.034;2023-05-14T00:28:44;16.40;;;14.70;;
31596;SDS011;18201;50.978;7.034;2023-05-14T00:29:14;17.08;;;15.13;;
31596;SDS011;18201;50.978;7.034;2023-05-14T00:29:45;15.55;;;13.95;;
31596;SDS011;18201;50.978;7.034;2023-05-14T00:30:17;18.88;;;14.82;;
31596;SDS011;18201;50.978;7.034;2023-05-14T00:30:48;18.75;;;15.52;;
31596;SDS011;18201;50.978;7.034;2023-05-14T00:31:19;17.85;;;15.32;;
31596;SDS011;18201;50.978;7.034;2023-05-14T00:31:51;18.90;;;15.98;;
31596;SDS011;18201;50.978;7.034;2023-05-14T00:32:22;18.55;;;15.32;;
31596;SDS011;18201;50.978;7.034;2023-05-14T00:32:53;17.42;;;15.63;;
31596;SDS011;18201;50.978;7.034;2023-05-14T00:33:25;15.88;;;14.30;;
31596;SDS011;18201;50.978;7.034;2023-05-14T00:33:56;17.98;;;15.57;;
31596;SDS011;18201;50.978;7.034;2023-05-14T00:34:26;16.73;;;14.93;;
31596;SDS011;18201;50.978;7.034;2023-05-14T00:34:57;16.42;;;14.57;;
31596;SDS011;18201;50.978;7.034;2023-05-14T00:35:29;17.10;;;15.35;;
31596;SDS011;18201;50.978;7.034;2023-05-14T00:36:00;19.55;;;16.00;;
31596;SDS011;18201;50.978;7.034;2023-05-14T00:36:31;15.48;;;13.85;;
31596;SDS011;18201;50.978;7.034;2023-05-14T00:37:03;18.92;;;14.85;;
31596;SDS011;18201;50.978;7.034;2023-05-14T00:37:34;16.85;;;14.80;;
31596;SDS011;18201;50.978;7.034;2023-05-14T00:38:06;17.77;;;14.65;;
31596;SDS011;18201;50.978;7.034;2023-05-14T00:38:39;17.58;;;15.88;;
31596;SDS011;18201;50.978;7.034;2023-05-14T00:39:10;15.93;;;14.23;;
31596;SDS011;18201;50.978;7.034;2023-05-14T00:39:41;24.48;;;15.38;;
31596;SDS011;18201;50.978;7.034;2023-05-14T00:40:13;16.58;;;14.88;;
31596;SDS011;18201;50.978;7.034;2023-05-14T00:40:44;18.73;;;15.05;;
31596;SDS011;18201;50.978;7.034;2023-05-14T00:41:21;22.35;;;14.70;;
31596;SDS011;18201;50.978;7.034;2023-05-14T00:41:53;16.90;;;15.30;;
31596;SDS011;18201;50.978;7.034;2023-05-14T00:42:24;17.52;;;15.70;;
31596;SDS011;18201;50.978;7.034;2023-05-14T00:42:56;18.75;;;14.48;;
31596;SDS011;18201;50.978;7.034;2023-05-14T00:43:28;16.73;;;15.02;;
31596;SDS011;18201;50.978;7.034;2023-05-14T00:43:59;25.02;;;15.13;;
31596;SDS011;18201;50.978;7.034;2023-05-14T00:44:30;16.98;;;14.50;;
31596;SDS011;18201;50.978;7.034;2023-05-14T00:45:02;16.98;;;15.30;;
31596;SDS011;18201;50.978;7.034;2023-05-14T00:45:33;16.83;;;15.10;;
31596;SDS011;18201;50.978;7.034;2023-05-14T00:46:05;17.42;;;15.05;;
31596;SDS011;18201;50.978;7.034;2023-05-14T00:46:37;16.98;;;14.80;;
31596;SDS011;18201;50.978;7.034;2023-05-14T00:47:08;17.38;;;14.38;;
31596;SDS011;18201;50.978;7.034;2023-05-14T00:47:39;19.25;;;14.77;;
31596;SDS011;18201;50.978;7.034;2023-05-14T00:48:10;15.80;;;14.23;;
31596;SDS011;18201;50.978;7.034;2023-05-14T00:48:42;18.20;;;15.90;;
31596;SDS011;18201;50.978;7.034;2023-05-14T00:49:13;16.02;;;14.43;;
31596;SDS011;18201;50.978;7.034;2023-05-14T00:49:44;18.15;;;15.05;;
31596;SDS011;18201;50.978;7.034;2023-05-14T00:50:16;15.20;;;13.77;;
31596;SDS011;18201;50.978;7.034;2023-05-14T00:50:48;18.90;;;13.85;;
31596;SDS011;18201;50.978;7.034;2023-05-14T00:51:19;15.48;;;13.68;;
31596;SDS011;18201;50.978;7.034;2023-05-14T00:51:51;20.38;;;14.82;;
31596;SDS011;18201;50.978;7.034;2023-05-14T00:52:23;16.52;;;14.60;;
31596;SDS011;18201;50.978;7.034;2023-05-14T00:52:54;16.70;;;14.70;;
31596;SDS011;18201;50.978;7.034;2023-05-14T00:53:26;14.98;;;13.48;;
31596;SDS011;18201;50.978;7.034;2023-05-14T00:53:58;15.48;;;13.82;;
31596;SDS011;18201;50.978;7.034;2023-05-14T00:54:29;17.92;;;14.60;;
31596;SDS011;18201;50.978;7.034;2023-05-14T00:55:04;15.73;;;12.98;;
31596;SDS011;18201;50.978;7.034;2023-05-14T00:55:36;22.13;;;14.52;;
31596;SDS011;18201;50.978;7.034;2023-05-14T00:56:08;19.33;;;13.82;;
31596;SDS011;18201;50.978;7.034;2023-05-14T00:56:40;16.08;;;14.38;;
31596;SDS011;18201;50.978;7.034;2023-05-14T00:57:11;15.18;;;13.73;;
31596;SDS011;18201;50.978;7.034;2023-05-14T00:57:42;15.25;;;13.75;;
31596;SDS011;18201;50.978;7.034;2023-05-14T00:58:14;16.25;;;14.57;;
31596;SDS011;18201;50.978;7.034;2023-05-14T00:58:48;15.68;;;14.07;;
31596;SDS011;18201;50.978;7.034;2023-05-14T00:59:18;18.17;;;15.45;;
31596;SDS011;18201;50.978;7.034;2023-05-14T00:59:50;16.05;;;13.65;;
31596;SDS011;18201;50.978;7.034;2023-05-14T01:00:21;15.18;;;13.77;;
31596;SDS011;18201;50.978;7.034;2023-05-14T01:00:52;14.52;;;13.10;;
31596;SDS011;18201;50.978;7.034;2023-05-14T01:01:24;15.00;;;13.43;;
31596;SDS011;18201;50.978;7.034;2023-05-14T01:01:57;17.27;;;14.27;;
31596;SDS011;18201;50.978;7.034;2023-05-14T01:02:28;14.77;;;13.18;;
31596;SDS011;18201;50.978;7.034;2023-05-14T01:02:59;15.15;;;13.57;;
31596;SDS011;18201;50.978;7.034;2023-05-14T01:03:32;17.48;;;14.13;;
31596;SDS011;18201;50.978;7.034;2023-05-14T01:04:03;18.30;;;14.60;;
31596;SDS011;18201;50.978;7.034;2023-05-14T01:04:36;17.42;;;14.48;;
31596;SDS011;18201;50.978;7.034;2023-05-14T01:05:08;15.57;;;13.93;;
31596;SDS011;18201;50.978;7.034;2023-05-14T01:05:41;15.90;;;14.30;;
31596;SDS011;18201;50.978;7.034;2023-05-14T01:06:19;17.17;;;13.55;;
31596;SDS011;18201;50.978;7.034;2023-05-14T01:06:58;15.65;;;14.00;;
31596;SDS011;18201;50.978;7.034;2023-05-14T01:07:41;16.05;;;14.38;;
31596;SDS011;18201;50.978;7.034;2023-05-14T01:08:21;15.15;;;13.40;;
31596;SDS011;18201;50.978;7.034;2023-05-14T01:09:04;15.68;;;14.00;;
31596;SDS011;18201;50.978;7.034;2023-05-14T01:09:45;16.40;;;13.75;;
31596;SDS011;18201;50.978;7.034;2023-05-14T01:10:22;15.50;;;13.88;;
31596;SDS011;18201;50.978;7.034;2023-05-14T01:10:59;15.82;;;14.02;;
31596;SDS011;18201;50.978;7.034;2023-05-14T01:11:35;15.05;;;13.45;;
31596;SDS011;18201;50.978;7.034;2023-05-14T01:12:13;15.57;;;14.07;;
31596;SDS011;18201;50.978;7.034;2023-05-14T01:12:51;17.42;;;13.77;;
31596;SDS011;18201;50.978;7.034;2023-05-14T01:13:40;16.30;;;13.75;;
31596;SDS011;18201;50.978;7.034;2023-05-14T01:14:19;16.92;;;14.95;;
31596;SDS011;18201;50.978;7.034;2023-05-14T01:14:54;16.08;;;14.35;;
31596;SDS011;18201;50.978;7.034;2023-05-14T01:15:32;16.83;;;15.05;;
31596;SDS011;18201;50.978;7.034;2023-05-14T01:16:06;17.60;;;14.57;;
31596;SDS011;18201;50.978;7.034;2023-05-14T01:16:41;17.58;;;15.80;;
31596;SDS011;18201;50.978;7.034;2023-05-14T01:17:14;16.23;;;14.50;;
31596;SDS011;18201;50.978;7.034;2023-05-14T01:17:50;16.85;;;15.10;;
31596;SDS011;18201;50.978;7.034;2023-05-14T01:18:24;17.60;;;14.85;;
31596;SDS011;18201;50.978;7.034;2023-05-14T01:18:58;16.50;;;14.77;;
31596;SDS011;18201;50.978;7.034;2023-05-14T01:19:32;17.25;;;15.05;;
31596;SDS011;18201;50.978;7.034;2023-05-14T01:20:09;19.63;;;14.63;;
31596;SDS011;18201;50.978;7.034;2023-05-14T01:20:41;17.25;;;14.00;;
31596;SDS011;18201;50.978;7.034;2023-05-14T01:21:35;16.27;;;14.50;;
31596;SDS011;18201;50.978;7.034;2023-05-14T01:22:07;20.33;;;14.55;;
31596;SDS011;18201;50.978;7.034;2023-05-14T01:22:39;16.45;;;14.85;;
31596;SDS011;18201;50.978;7.034;2023-05-14T01:23:09;15.43;;;13.60;;
31596;SDS011;18201;50.978;7.034;2023-05-14T01:23:41;14.90;;;13.45;;
31596;SDS011;18201;50.978;7.034;2023-05-14T01:24:12;17.58;;;14.20;;
31596;SDS011;18201;50.978;7.034;2023-05-14T01:24:43;16.00;;;14.27;;
31596;SDS011;18201;50.978;7.034;2023-05-14T01:25:15;15.27;;;13.70;;
31596;SDS011;18201;50.978;7.034;2023-05-14T01:25:46;20.55;;;14.23;;
31596;SDS011;18201;50.978;7.034;2023-05-14T01:26:17;15.38;;;13.80;;
31596;SDS011;18201;50.978;7.034;2023-05-14T01:26:49;18.25;;;15.02;;
31596;SDS011;18201;50.978;7.034;2023-05-14T01:27:27;18.13;;;15.82;;
31596;SDS011;18201;50.978;7.034;2023-05-14T01:28:05;15.68;;;13.98;;
31596;SDS011;18201;50.978;7.034;2023-05-14T01:28:43;16.08;;;14.40;;
31596;SDS011;18201;50.978;7.034;2023-05-14T01:29:15;16.20;;;14.52;;
31596;SDS011;18201;50.978;7.034;2023-05-14T01:29:52;17.48;;;15.43;;
31596;SDS011;18201;50.978;7.034;2023-05-14T01:30:31;17.02;;;14.70;;
31596;SDS011;18201;50.978;7.034;2023-05-14T01:31:07;17.38;;;15.65;;
31596;SDS011;18201;50.978;7.034;2023-05-14T01:31:43;25.17;;;14.85;;
31596;SDS011;18201;50.978;7.034;2023-05-14T01:32:16;16.85;;;15.07;;
31596;SDS011;18201;50.978;7.034;2023-05-14T01:32:50;20.60;;;14.60;;
31596;SDS011;18201;50.978;7.034;2023-05-14T01:33:26;15.82;;;14.23;;
31596;SDS011;18201;50.978;7.034;2023-05-14T01:33:58;20.70;;;14.18;;
31596;SDS011;18201;50.978;7.034;2023-05-14T01:34:32;16.38;;;13.90;;
31596;SDS011;18201;50.978;7.034;2023-05-14T01:35:05;18.30;;;14.02;;
31596;SDS011;18201;50.978;7.034;2023-05-14T01:35:38;16.30;;;14.55;;
31596;SDS011;18201;50.978;7.034;2023-05-14T01:36:11;18.88;;;14.57;;
31596;SDS011;18201;50.978;7.034;2023-05-14T01:36:44;16.10;;;14.45;;
31596;SDS011;18201;50.978;7.034;2023-05-14T01:37:16;17.70;;;14.30;;
31596;SDS011;18201;50.978;7.034;2023-05-14T01:37:48;17.70;;;14.35;;
31596;SDS011;18201;50.978;7.034;2023-05-14T01:38:20;19.85;;;14.10;;
31596;SDS011;18201;50.978;7.034;2023-05-14T01:38:52;15.07;;;13.57;;
31596;SDS011;18201;50.978;7.034;2023-05-14T01:39:25;15.32;;;13.57;;
31596;SDS011;18201;50.978;7.034;2023-05-14T01:40:01;15.57;;;13.55;;
31596;SDS011;18201;50.978;7.034;2023-05-14T01:40:32;17.48;;;14.70;;
31596;SDS011;18201;50.978;7.034;2023-05-14T01:41:05;16.98;;;14.10;;
31596;SDS011;18201;50.978;7.034;2023-05-14T01:41:37;14.90;;;13.40;;
31596;SDS011;18201;50.978;7.034;2023-05-14T01:42:08;17.17;;;13.23;;
31596;SDS011;18201;50.978;7.034;2023-05-14T01:42:40;16.38;;;14.10;;
31596;SDS011;18201;50.978;7.034;2023-05-14T01:43:12;14.32;;;12.98;;
31596;SDS011;18201;50.978;7.034;2023-05-14T01:43:44;14.80;;;13.35;;
31596;SDS011;18201;50.978;7.034;2023-05-14T01:44:15;15.32;;;13.75;;
31596;SDS011;18201;50.978;7.034;2023-05-14T01:44:47;15.18;;;13.45;;
31596;SDS011;18201;50.978;7.034;2023-05-14T01:45:18;14.75;;;13.32;;
31596;SDS011;18201;50.978;7.034;2023-05-14T01:45:50;17.10;;;14.38;;
31596;SDS011;18201;50.978;7.034;2023-05-14T01:46:24;14.90;;;13.38;;
31596;SDS011;18201;50.978;7.034;2023-05-14T01:46:55;17.63;;;14.00;;
31596;SDS011;18201;50.978;7.034;2023-05-14T01:47:26;16.55;;;13.52;;
31596;SDS011;18201;50.978;7.034;2023-05-14T01:47:56;15.38;;;13.63;;
31596;SDS011;18201;50.978;7.034;2023-05-14T01:48:28;18.98;;;13.88;;
31596;SDS011;18201;50.978;7.034;2023-05-14T01:48:59;16.65;;;13.63;;
31596;SDS011;18201;50.978;7.034;2023-05-14T01:49:30;16.13;;;14.20;;
31596;SDS011;18201;50.978;7.034;2023-05-14T01:50:01;15.40;;;13.82;;
31596;SDS011;18201;50.978;7.034;2023-05-14T01:50:33;17.08;;;14.23;;
31596;SDS011;18201;50.978;7.034;2023-05-14T01:51:04;14.65;;;13.20;;
31596;SDS011;18201;50.978;7.034;2023-05-14T01:51:35;15.27;;;13.68;;
31596;SDS011;18201;50.978;7.034;2023-05-14T01:52:09;14.93;;;12.60;;
31596;SDS011;18201;50.978;7.034;2023-05-14T01:52:40;15.65;;;13.77;;
31596;SDS011;18201;50.978;7.034;2023-05-14T01:53:11;16.13;;;14.43;;
31596;SDS011;18201;50.978;7.034;2023-05-14T01:53:42;14.98;;;13.48;;
31596;SDS011;18201;50.978;7.034;2023-05-14T01:54:13;15.88;;;14.23;;
31596;SDS011;18201;50.978;7.034;2023-05-14T01:54:44;15.25;;;13.65;;
31596;SDS011;18201;50.978;7.034;2023-05-14T01:55:16;15.55;;;13.93;;
31596;SDS011;18201;50.978;7.034;2023-05-14T01:55:47;15.30;;;13.70;;
31596;SDS011;18201;50.978;7.034;2023-05-14T01:56:18;15.50;;;13.32;;
31596;SDS011;18201;50.978;7.034;2023-05-14T01:56:52;16.83;;;13.80;;
31596;SDS011;18201;50.978;7.034;2023-05-14T01:57:22;16.48;;;14.18;;
31596;SDS011;18201;50.978;7.034;2023-05-14T01:57:53;15.15;;;13.60;;
31596;SDS011;18201;50.978;7.034;2023-05-14T01:58:24;15.23;;;13.63;;
31596;SDS011;18201;50.978;7.034;2023-05-14T01:58:56;16.33;;;12.93;;
31596;SDS011;18201;50.978;7.034;2023-05-14T01:59:27;15.95;;;14.25;;
31596;SDS011;18201;50.978;7.034;2023-05-14T01:59:58;14.60;;;13.00;;
31596;SDS011;18201;50.978;7.034;2023-05-14T02:00:30;16.15;;;14.27;;
31596;SDS011;18201;50.978;7.034;2023-05-14T02:01:01;15.85;;;13.18;;
31596;SDS011;18201;50.978;7.034;2023-05-14T02:01:32;15.00;;;12.52;;
31596;SDS011;18201;50.978;7.034;2023-05-14T02:02:03;14.93;;;13.45;;
31596;SDS011;18201;50.978;7.034;2023-05-14T02:02:35;14.93;;;12.70;;
31596;SDS011;18201;50.978;7.034;2023-05-14T02:03:06;15.30;;;13.30;;
31596;SDS011;18201;50.978;7.034;2023-05-14T02:03:37;14.90;;;13.23;;
31596;SDS011;18201;50.978;7.034;2023-05-14T02:04:08;16.98;;;14.18;;
31596;SDS011;18201;50.978;7.034;2023-05-14T02:04:39;15.35;;;13.50;;
31596;SDS011;18201;50.978;7.034;2023-05-14T02:05:11;14.90;;;13.40;;
31596;SDS011;18201;50.978;7.034;2023-05-14T02:05:43;15.80;;;13.23;;
31596;SDS011;18201;50.978;7.034;2023-05-14T02:06:14;17.48;;;13.88;;
31596;SDS011;18201;50.978;7.034;2023-05-14T02:06:45;17.20;;;13.48;;
31596;SDS011;18201;50.978;7.034;2023-05-14T02:07:18;15.10;;;13.52;;
31596;SDS011;18201;50.978;7.034;2023-05-14T02:07:49;15.05;;;13.48;;
31596;SDS011;18201;50.978;7.034;2023-05-14T02:08:20;15.57;;;13.98;;
31596;SDS011;18201;50.978;7.034;2023-05-14T02:08:51;14.23;;;12.82;;
31596;SDS011;18201;50.978;7.034;2023-05-14T02:09:23;16.83;;;13.88;;
31596;SDS011;18201;50.978;7.034;2023-05-14T02:09:53;15.05;;;13.50;;
31596;SDS011;18201;50.978;7.034;2023-05-14T02:10:25;16.15;;;12.57;;
31596;SDS011;18201;50.978;7.034;2023-05-14T02:10:56;16.80;;;13.85;;
31596;SDS011;18201;50.978;7.034;2023-05-14T02:11:27;16.63;;;13.70;;
31596;SDS011;18201;50.978;7.034;2023-05-14T02:11:59;14.00;;;12.25;;
31596;SDS011;18201;50.978;7.034;2023-05-14T02:12:30;16.67;;;13.38;;
31596;SDS011;18201;50.978;7.034;2023-05-14T02:13:01;14.40;;;12.95;;
31596;SDS011;18201;50.978;7.034;2023-05-14T02:13:33;16.50;;;13.27;;
31596;SDS011;18201;50.978;7.034;2023-05-14T02:14:04;14.00;;;12.43;;
31596;SDS011;18201;50.978;7.034;2023-05-14T02:14:35;14.15;;;12.45;;
31596;SDS011;18201;50.978;7.034;2023-05-14T02:15:08;16.63;;;13.27;;
31596;SDS011;18201;50.978;7.034;2023-05-14T02:15:40;16.80;;;13.15;;
31596;SDS011;18201;50.978;7.034;2023-05-14T02:16:11;15.70;;;12.43;;
31596;SDS011;18201;50.978;7.034;2023-05-14T02:16:42;17.50;;;13.45;;
31596;SDS011;18201;50.978;7.034;2023-05-14T02:17:13;14.52;;;13.00;;
31596;SDS011;18201;50.978;7.034;2023-05-14T02:17:46;14.23;;;12.82;;
31596;SDS011;18201;50.978;7.034;2023-05-14T02:18:17;14.05;;;12.07;;
31596;SDS011;18201;50.978;7.034;2023-05-14T02:18:49;21.35;;;13.20;;
31596;SDS011;18201;50.978;7.034;2023-05-14T02:19:20;14.02;;;12.63;;
31596;SDS011;18201;50.978;7.034;2023-05-14T02:19:51;15.23;;;12.15;;
31596;SDS011;18201;50.978;7.034;2023-05-14T02:20:21;13.95;;;12.15;;
31596;SDS011;18201;50.978;7.034;2023-05-14T02:20:53;13.68;;;12.00;;
31596;SDS011;18201;50.978;7.034;2023-05-14T02:21:24;13.88;;;12.43;;
31596;SDS011;18201;50.978;7.034;2023-05-14T02:21:57;13.43;;;11.75;;
31596;SDS011;18201;50.978;7.034;2023-05-14T02:22:30;15.23;;;12.23;;
31596;SDS011;18201;50.978;7.034;2023-05-14T02:23:00;14.30;;;12.75;;
31596;SDS011;18201;50.978;7.034;2023-05-14T02:23:31;13.77;;;12.18;;
31596;SDS011;18201;50.978;7.034;2023-05-14T02:24:03;14.80;;;12.32;;
31596;SDS011;18201;50.978;7.034;2023-05-14T02:24:34;15.68;;;12.68;;
31596;SDS011;18201;50.978;7.034;2023-05-14T02:25:06;15.80;;;13.38;;
31596;SDS011;18201;50.978;7.034;2023-05-14T02:25:38;14.07;;;12.30;;
31596;SDS011;18201;50.978;7.034;2023-05-14T02:26:09;12.65;;;11.35;;
31596;SDS011;18201;50.978;7.034;2023-05-14T02:26:41;16.10;;;12.63;;
31596;SDS011;18201;50.978;7.034;2023-05-14T02:27:13;12.68;;;11.52;;
31596;SDS011;18201;50.978;7.034;2023-05-14T02:27:43;14.05;;;12.75;;
31596;SDS011;18201;50.978;7.034;2023-05-14T02:28:14;20.38;;;11.82;;
31596;SDS011;18201;50.978;7.034;2023-05-14T02:28:45;14.10;;;12.68;;
31596;SDS011;18201;50.978;7.034;2023-05-14T02:29:17;17.35;;;13.88;;
31596;SDS011;18201;50.978;7.034;2023-05-14T02:29:48;12.90;;;11.70;;
31596;SDS011;18201;50.978;7.034;2023-05-14T02:30:19;15.60;;;13.30;;
31596;SDS011;18201;50.978;7.034;2023-05-14T02:30:50;13.20;;;11.90;;
31596;SDS011;18201;50.978;7.034;2023-05-14T02:31:22;13.85;;;11.55;;
31596;SDS011;18201;50.978;7.034;2023-05-14T02:31:53;13.95;;;12.20;;
31596;SDS011;18201;50.978;7.034;2023-05-14T02:32:25;14.45;;;11.98;;
31596;SDS011;18201;50.978;7.034;2023-05-14T02:32:56;14.30;;;11.40;;
31596;SDS011;18201;50.978;7.034;2023-05-14T02:33:28;12.98;;;11.60;;
31596;SDS011;18201;50.978;7.034;2023-05-14T02:33:59;13.05;;;11.70;;
31596;SDS011;18201;50.978;7.034;2023-05-14T02:34:30;12.55;;;11.32;;
31596;SDS011;18201;50.978;7.034;2023-05-14T02:35:03;12.52;;;11.32;;
31596;SDS011;18201;50.978;7.034;2023-05-14T02:35:36;13.35;;;11.95;;
31596;SDS011;18201;50.978;7.034;2023-05-14T02:36:07;15.10;;;12.30;;
31596;SDS011;18201;50.978;7.034;2023-05-14T02:36:38;13.68;;;11.98;;
31596;SDS011;18201;50.978;7.034;2023-05-14T02:37:10;15.88;;;13.00;;
31596;SDS011;18201;50.978;7.034;2023-05-14T02:37:42;14.73;;;11.77;;
31596;SDS011;18201;50.978;7.034;2023-05-14T02:38:13;14.70;;;12.40;;
31596;SDS011;18201;50.978;7.034;2023-05-14T02:38:45;13.95;;;12.55;;
31596;SDS011;18201;50.978;7.034;2023-05-14T02:39:15;14.07;;;12.60;;
31596;SDS011;18201;50.978;7.034;2023-05-14T02:39:46;14.32;;;12.75;;
31596;SDS011;18201;50.978;7.034;2023-05-14T02:40:19;13.77;;;12.50;;
31596;SDS011;18201;50.978;7.034;2023-05-14T02:40:49;12.77;;;11.48;;
31596;SDS011;18201;50.978;7.034;2023-05-14T02:41:20;13.85;;;12.40;;
31596;SDS011;18201;50.978;7.034;2023-05-14T02:41:52;14.48;;;11.63;;
31596;SDS011;18201;50.978;7.034;2023-05-14T02:42:23;16.52;;;11.43;;
31596;SDS011;18201;50.978;7.034;2023-05-14T02:42:54;13.45;;;12.20;;
31596;SDS011;18201;50.978;7.034;2023-05-14T02:43:25;12.73;;;11.40;;
31596;SDS011;18201;50.978;7.034;2023-05-14T02:43:56;15.73;;;11.38;;
31596;SDS011;18201;50.978;7.034;2023-05-14T02:44:27;13.40;;;12.10;;
31596;SDS011;18201;50.978;7.034;2023-05-14T02:45:00;13.05;;;11.70;;
31596;SDS011;18201;50.978;7.034;2023-05-14T02:45:31;14.85;;;12.07;;
31596;SDS011;18201;50.978;7.034;2023-05-14T02:46:02;13.35;;;12.05;;
31596;SDS011;18201;50.978;7.034;2023-05-14T02:46:34;13.43;;;12.05;;
31596;SDS011;18201;50.978;7.034;2023-05-14T02:47:05;12.63;;;11.02;;
31596;SDS011;18201;50.978;7.034;2023-05-14T02:47:36;13.82;;;11.85;;
31596;SDS011;18201;50.978;7.034;2023-05-14T02:48:08;14.55;;;12.52;;
31596;SDS011;18201;50.978;7.034;2023-05-14T02:48:38;13.40;;;11.55;;
31596;SDS011;18201;50.978;7.034;2023-05-14T02:49:09;14.60;;;13.05;;
31596;SDS011;18201;50.978;7.034;2023-05-14T02:49:41;13.15;;;11.85;;
31596;SDS011;18201;50.978;7.034;2023-05-14T02:50:12;13.82;;;12.52;;
31596;SDS011;18201;50.978;7.034;2023-05-14T02:50:43;13.55;;;12.25;;
31596;SDS011;18201;50.978;7.034;2023-05-14T02:51:15;15.65;;;12.77;;
31596;SDS011;18201;50.978;7.034;2023-05-14T02:51:48;16.88;;;12.77;;
31596;SDS011;18201;50.978;7.034;2023-05-14T02:52:19;14.77;;;12.25;;
31596;SDS011;18201;50.978;7.034;2023-05-14T02:52:52;15.10;;;12.32;;
31596;SDS011;18201;50.978;7.034;2023-05-14T02:53:23;15.13;;;12.48;;
31596;SDS011;18201;50.978;7.034;2023-05-14T02:53:54;17.08;;;13.15;;
31596;SDS011;18201;50.978;7.034;2023-05-14T02:54:26;17.50;;;12.45;;
31596;SDS011;18201;50.978;7.034;2023-05-14T02:54:56;14.75;;;13.10;;
31596;SDS011;18201;50.978;7.034;2023-05-14T02:55:27;14.88;;;12.75;;
31596;SDS011;18201;50.978;7.034;2023-05-14T02:55:59;17.83;;;13.68;;
31596;SDS011;18201;50.978;7.034;2023-05-14T02:56:30;14.60;;;12.63;;
31596;SDS011;18201;50.978;7.034;2023-05-14T02:57:01;15.27;;;13.77;;
31596;SDS011;18201;50.978;7.034;2023-05-14T02:57:33;13.82;;;12.35;;
31596;SDS011;18201;50.978;7.034;2023-05-14T02:58:04;15.35;;;12.35;;
31596;SDS011;18201;50.978;7.034;2023-05-14T02:58:35;13.40;;;12.00;;
31596;SDS011;18201;50.978;7.034;2023-05-14T02:59:07;14.68;;;13.05;;
31596;SDS011;18201;50.978;7.034;2023-05-14T02:59:38;17.15;;;12.77;;
31596;SDS011;18201;50.978;7.034;2023-05-14T03:00:09;13.93;;;12.63;;
31596;SDS011;18201;50.978;7.034;2023-05-14T03:00:41;15.18;;;11.93;;
31596;SDS011;18201;50.978;7.034;2023-05-14T03:01:12;15.23;;;12.27;;
31596;SDS011;18201;50.978;7.034;2023-05-14T03:01:44;14.10;;;12.77;;
31596;SDS011;18201;50.978;7.034;2023-05-14T03:02:14;13.82;;;12.50;;
31596;SDS011;18201;50.978;7.034;2023-05-14T03:02:46;14.35;;;12.60;;
31596;SDS011;18201;50.978;7.034;2023-05-14T03:03:17;14.23;;;12.73;;
31596;SDS011;18201;50.978;7.034;2023-05-14T03:03:50;13.98;;;11.90;;
31596;SDS011;18201;50.978;7.034;2023-05-14T03:04:20;13.95;;;12.57;;
31596;SDS011;18201;50.978;7.034;2023-05-14T03:04:51;13.75;;;12.30;;
31596;SDS011;18201;50.978;7.034;2023-05-14T03:05:22;12.20;;;10.90;;
31596;SDS011;18201;50.978;7.034;2023-05-14T03:05:54;13.55;;;11.95;;
31596;SDS011;18201;50.978;7.034;2023-05-14T03:06:25;13.27;;;12.07;;
31596;SDS011;18201;50.978;7.034;2023-05-14T03:06:56;13.60;;;12.35;;
31596;SDS011;18201;50.978;7.034;2023-05-14T03:07:28;14.00;;;12.57;;
31596;SDS011;18201;50.978;7.034;2023-05-14T03:08:00;13.63;;;12.27;;